Tenacious — ZQHM2 — position and weather

sailwx.info

Track history (hours):
 
Tides and Currents Weather Stations Pressure Air Temp Water Temp Dewpoint Dewpoint Depression Visibility Wind Speed Wind Dir Waves Ship Positions

Tenacious (United Kingdom)

Ship's website: http://www.jst.org.uk/

Last reported at 2019-Jun-16 15:01 UTC. Time now 2019-Jun-16 15:07 UTC.
Position N 49°24' E 000°49'.

Length 65 m; beam 10.6 m; draft 4.6 m.

Type: Sailing vessel. MMSI: 235000230.

Date/timePositionNaut miles runAvg speedWind from/ knotsBaromVisibWave heightAir tempDewpointWater temp
2019-Jun-16 15:01N 49°24' E 000°49'2 4.9
2019-Jun-16 14:30N 49°26' E 000°52'4 7.3
2019-Jun-16 14:00N 49°29' E 000°54'4 8.0
2019-Jun-16 13:30N 49°25' E 000°56'4 7.2
2019-Jun-16 13:01N 49°22' E 000°55'3 5.8
2019-Jun-16 12:31N 49°22' E 000°60'3 6.3
2019-Jun-16 12:01N 49°25' E 001°01'2 5.0
2019-Jun-16 11:30N 49°27' E 001°04'0 0.2
2019-Jun-16 10:58N 49°27' E 001°04'0 0.0
2019-Jun-16 10:28N 49°27' E 001°04'0 0.0
2019-Jun-16 09:58N 49°27' E 001°04'0 0.0
2019-Jun-16 09:28N 49°27' E 001°04'0 0.0
2019-Jun-16 08:58N 49°27' E 001°04'0 0.0
2019-Jun-16 08:28N 49°27' E 001°04'0 0.0
2019-Jun-16 07:58N 49°27' E 001°04'0 0.0
2019-Jun-16 07:25N 49°27' E 001°04'0 0.0
2019-Jun-16 06:55N 49°27' E 001°04'0 0.0
2019-Jun-16 06:28N 49°27' E 001°04'0 0.0
2019-Jun-16 05:58N 49°27' E 001°04'0 0.0
2019-Jun-16 05:28N 49°27' E 001°04'0 0.0
2019-Jun-16 04:52N 49°27' E 001°04'0 0.0
2019-Jun-16 04:28N 49°27' E 001°04'0 0.0
2019-Jun-16 03:58N 49°27' E 001°04'0 0.0
2019-Jun-16 03:31N 49°27' E 001°04'0 0.0
2019-Jun-16 03:01N 49°27' E 001°04'0 0.0
2019-Jun-16 02:30N 49°27' E 001°04'0 0.0
2019-Jun-16 02:00N 49°27' E 001°04'0 0.0
2019-Jun-16 01:30N 49°27' E 001°04'0 0.0
2019-Jun-16 01:00N 49°27' E 001°04'0 0.0
2019-Jun-16 00:30N 49°27' E 001°04'0 0.0
2019-Jun-16 00:00N 49°27' E 001°04'0 0.0
2019-Jun-15 23:27N 49°27' E 001°04'0 0.0
2019-Jun-15 23:00N 49°27' E 001°04'0 0.0
2019-Jun-15 22:27N 49°27' E 001°04'0 0.0
2019-Jun-15 22:00N 49°27' E 001°04'0 0.0
2019-Jun-15 21:30N 49°27' E 001°04'0 0.0
2019-Jun-15 21:00N 49°27' E 001°04'0 0.0
2019-Jun-15 20:27N 49°27' E 001°04'0 0.0
2019-Jun-15 20:00N 49°27' E 001°04'0 0.0
2019-Jun-15 19:30N 49°27' E 001°04'0 0.0
2019-Jun-15 19:00N 49°27' E 001°04'0 0.0
2019-Jun-15 18:30N 49°27' E 001°04'0 0.0
2019-Jun-15 18:00N 49°27' E 001°04'0 0.0
2019-Jun-15 17:30N 49°27' E 001°04'0 0.0
2019-Jun-15 17:00N 49°27' E 001°04'0 0.0
2019-Jun-15 16:30N 49°27' E 001°04'0 0.0
2019-Jun-15 15:57N 49°27' E 001°04'0 0.0
2019-Jun-15 15:30N 49°27' E 001°04'0 0.0
2019-Jun-15 15:00N 49°27' E 001°04'0 0.0
2019-Jun-15 14:30N 49°27' E 001°04'0 0.0
2019-Jun-15 14:00N 49°27' E 001°04'0 0.0
2019-Jun-15 13:30N 49°27' E 001°04'0 0.0
2019-Jun-15 12:57N 49°27' E 001°04'0 0.0
2019-Jun-15 12:30N 49°27' E 001°04'0 0.0
2019-Jun-15 12:00N 49°27' E 001°04'0 0.0
2019-Jun-15 11:21N 49°27' E 001°04'0 0.0
2019-Jun-15 11:00N 49°27' E 001°04'0 0.0
2019-Jun-15 10:30N 49°27' E 001°04'0 0.0
2019-Jun-15 10:00N 49°27' E 001°04'0 0.0
2019-Jun-15 09:30N 49°27' E 001°04'0 0.0
2019-Jun-15 09:00N 49°27' E 001°04'0 0.0
2019-Jun-15 08:30N 49°27' E 001°04'0 0.0
2019-Jun-15 07:57N 49°27' E 001°04'0 0.0
2019-Jun-15 07:18N 49°27' E 001°04'0 0.0
2019-Jun-15 07:00N 49°27' E 001°04'0 0.0
2019-Jun-15 06:27N 49°27' E 001°04'0 0.0
2019-Jun-15 06:00N 49°27' E 001°04'0 0.0
2019-Jun-15 05:30N 49°27' E 001°04'0 0.0
2019-Jun-15 05:00N 49°27' E 001°04'0 0.0
2019-Jun-15 04:27N 49°27' E 001°04'0 0.0
2019-Jun-15 04:00N 49°27' E 001°04'0 0.0
2019-Jun-15 03:30N 49°27' E 001°04'0 0.0
2019-Jun-15 02:54N 49°27' E 001°04'0 0.0
2019-Jun-15 02:30N 49°27' E 001°04'0 0.0
2019-Jun-15 02:00N 49°27' E 001°04'0 0.0
2019-Jun-15 01:30N 49°27' E 001°04'0 0.0
2019-Jun-15 00:54N 49°27' E 001°04'0 0.0
2019-Jun-15 00:30N 49°27' E 001°04'0 0.0
2019-Jun-15 00:00N 49°27' E 001°04'0 0.0
2019-Jun-14 23:27N 49°27' E 001°04'0 0.0
2019-Jun-14 23:00N 49°27' E 001°04'0 0.0
2019-Jun-14 22:30N 49°27' E 001°04'0 0.0
2019-Jun-14 22:00N 49°27' E 001°04'0 0.0
2019-Jun-14 21:24N 49°27' E 001°04'0 0.0
2019-Jun-14 20:54N 49°27' E 001°04'0 0.0
2019-Jun-14 20:24N 49°27' E 001°04'0 0.0
2019-Jun-14 19:57N 49°27' E 001°04'0 0.0
2019-Jun-14 19:30N 49°27' E 001°04'0 0.0
2019-Jun-14 19:00N 49°27' E 001°04'0 0.0
2019-Jun-14 18:30N 49°27' E 001°04'0 0.0
2019-Jun-14 18:00N 49°27' E 001°04'0 0.0
2019-Jun-14 17:30N 49°27' E 001°04'0 0.0
2019-Jun-14 16:54N 49°27' E 001°04'0 0.0
2019-Jun-14 16:30N 49°27' E 001°04'0 0.0
2019-Jun-14 16:00N 49°27' E 001°04'0 0.0
2019-Jun-14 15:21N 49°27' E 001°04'0 0.0
2019-Jun-14 14:54N 49°27' E 001°04'0 0.0
2019-Jun-14 14:30N 49°27' E 001°04'0 0.0
2019-Jun-14 13:51N 49°27' E 001°04'0 0.0
2019-Jun-14 13:30N 49°27' E 001°04'0 0.0
2019-Jun-14 13:00N 49°27' E 001°04'0 0.0
2019-Jun-14 12:23N 49°27' E 001°04'0 0.0
2019-Jun-14 11:53N 49°27' E 001°04'0 0.0
2019-Jun-14 11:29N 49°27' E 001°04'0 0.0
2019-Jun-14 10:59N 49°27' E 001°04'0 0.0
2019-Jun-14 10:29N 49°27' E 001°04'0 0.0
2019-Jun-14 09:59N 49°27' E 001°04'0 0.0
2019-Jun-14 09:20N 49°27' E 001°04'0 0.0
2019-Jun-14 08:59N 49°27' E 001°04'0 0.0
2019-Jun-14 08:29N 49°27' E 001°04'0 0.0
2019-Jun-14 07:56N 49°27' E 001°04'0 0.0
2019-Jun-14 07:14N 49°27' E 001°04'0 0.0
2019-Jun-14 06:59N 49°27' E 001°04'0 0.0
2019-Jun-14 06:29N 49°27' E 001°04'0 0.0
2019-Jun-14 05:59N 49°27' E 001°04'0 0.0
2019-Jun-14 05:29N 49°27' E 001°04'0 0.0
2019-Jun-14 04:59N 49°27' E 001°04'0 0.0
2019-Jun-14 04:29N 49°27' E 001°04'0 0.0
2019-Jun-14 03:59N 49°27' E 001°04'0 0.0
2019-Jun-14 03:26N 49°27' E 001°04'0 0.0
2019-Jun-14 02:59N 49°27' E 001°04'0 0.0
2019-Jun-14 02:29N 49°27' E 001°04'0 0.0
2019-Jun-14 01:59N 49°27' E 001°04'0 0.0
2019-Jun-14 01:29N 49°27' E 001°04'0 0.0
2019-Jun-14 00:59N 49°27' E 001°04'0 0.0
2019-Jun-14 00:29N 49°27' E 001°04'0 0.0
2019-Jun-13 23:59N 49°27' E 001°04'0 0.0
2019-Jun-13 23:29N 49°27' E 001°04'0 0.0
2019-Jun-13 22:59N 49°27' E 001°04'0 0.0
2019-Jun-13 22:29N 49°27' E 001°04'0 0.0
2019-Jun-13 21:59N 49°27' E 001°04'0 0.0
2019-Jun-13 21:26N 49°27' E 001°04'0 0.0
2019-Jun-13 20:59N 49°27' E 001°04'0 0.0
2019-Jun-13 20:29N 49°27' E 001°04'0 0.0
2019-Jun-13 19:59N 49°27' E 001°04'0 0.0
2019-Jun-13 19:29N 49°27' E 001°04'0 0.0
2019-Jun-13 18:59N 49°27' E 001°04'0 0.0
2019-Jun-13 18:29N 49°27' E 001°04'0 0.0
2019-Jun-13 17:59N 49°27' E 001°04'0 0.0
2019-Jun-13 17:29N 49°27' E 001°04'0 0.0
2019-Jun-13 16:59N 49°27' E 001°04'0 0.0
2019-Jun-13 16:23N 49°27' E 001°04'0 0.0
2019-Jun-13 15:56N 49°27' E 001°04'0 0.0
2019-Jun-13 15:29N 49°27' E 001°04'0 0.0
2019-Jun-13 14:53N 49°27' E 001°04'0 0.0
2019-Jun-13 14:29N 49°27' E 001°04'0 0.0
2019-Jun-13 13:59N 49°27' E 001°04'0 0.0
2019-Jun-13 13:29N 49°27' E 001°04'0 0.0
2019-Jun-13 12:56N 49°27' E 001°04'0 0.0
2019-Jun-13 12:29N 49°27' E 001°04'0 0.0
2019-Jun-13 11:59N 49°27' E 001°04'0 0.0
2019-Jun-13 11:29N 49°27' E 001°04'0 0.0
2019-Jun-13 10:59N 49°27' E 001°04'0 0.0
2019-Jun-13 10:29N 49°27' E 001°04'0 0.0
2019-Jun-13 09:59N 49°27' E 001°04'0 0.0
2019-Jun-13 09:29N 49°27' E 001°04'0 0.0
2019-Jun-13 08:59N 49°27' E 001°04'0 0.0
2019-Jun-13 08:29N 49°27' E 001°04'0 0.0
2019-Jun-13 07:56N 49°27' E 001°04'0 0.0
2019-Jun-13 07:29N 49°27' E 001°04'0 0.0
2019-Jun-13 06:59N 49°27' E 001°04'0 0.0
2019-Jun-13 06:26N 49°27' E 001°04'0 0.0
2019-Jun-13 05:59N 49°27' E 001°04'0 0.0
2019-Jun-13 05:29N 49°27' E 001°04'0 0.0
2019-Jun-13 04:59N 49°27' E 001°04'0 0.0
2019-Jun-13 04:29N 49°27' E 001°04'0 0.0
2019-Jun-13 03:59N 49°27' E 001°04'0 0.0
2019-Jun-13 03:29N 49°27' E 001°04'0 0.0
2019-Jun-13 02:59N 49°27' E 001°04'0 0.0
2019-Jun-13 02:29N 49°27' E 001°04'0 0.0
2019-Jun-13 01:59N 49°27' E 001°04'0 0.0
2019-Jun-13 01:29N 49°27' E 001°04'0 0.0
2019-Jun-13 00:59N 49°27' E 001°04'0 0.0
2019-Jun-13 00:29N 49°27' E 001°04'0 0.0
2019-Jun-12 23:59N 49°27' E 001°04'0 0.0
2019-Jun-12 23:26N 49°27' E 001°04'0 0.0
2019-Jun-12 22:59N 49°27' E 001°04'0 0.0
2019-Jun-12 22:25N 49°27' E 001°04'0 0.0
2019-Jun-12 21:59N 49°27' E 001°04'0 0.0
2019-Jun-12 21:28N 49°27' E 001°04'0 0.0
2019-Jun-12 20:58N 49°27' E 001°04'0 0.0
2019-Jun-12 20:25N 49°27' E 001°04'0 0.0
2019-Jun-12 19:55N 49°27' E 001°04'0 0.0
2019-Jun-12 19:28N 49°27' E 001°04'0 0.0
2019-Jun-12 18:58N 49°27' E 001°04'0 0.0
2019-Jun-12 18:22N 49°27' E 001°04'0 0.0
2019-Jun-12 17:58N 49°27' E 001°04'0 0.0
2019-Jun-12 17:10N 49°27' E 001°04'0 0.0
2019-Jun-12 16:58N 49°27' E 001°04'0 0.0
2019-Jun-12 16:28N 49°27' E 001°04'0 0.0
2019-Jun-12 15:55N 49°27' E 001°04'0 0.0
2019-Jun-12 15:28N 49°27' E 001°04'0 0.0
2019-Jun-12 14:58N 49°27' E 001°04'0 0.0
2019-Jun-12 14:28N 49°27' E 001°04'0 0.0
2019-Jun-12 13:58N 49°27' E 001°04'0 0.0
2019-Jun-12 13:28N 49°27' E 001°04'0 0.0
2019-Jun-12 12:58N 49°27' E 001°04'0 0.0
2019-Jun-12 12:28N 49°27' E 001°04'0 0.0
2019-Jun-12 11:58N 49°27' E 001°04'0 0.0
2019-Jun-12 11:28N 49°27' E 001°04'0 0.0
2019-Jun-12 10:58N 49°27' E 001°04'0 0.0
2019-Jun-12 10:28N 49°27' E 001°04'0 0.0
2019-Jun-12 09:58N 49°27' E 001°04'0 0.0
2019-Jun-12 09:28N 49°27' E 001°04'0 0.0
2019-Jun-12 08:58N 49°27' E 001°04'0 0.0
2019-Jun-12 08:28N 49°27' E 001°04'0 0.0
2019-Jun-12 07:58N 49°27' E 001°04'0 0.0
2019-Jun-12 07:28N 49°27' E 001°04'0 0.0
2019-Jun-12 06:58N 49°27' E 001°04'0 0.0
2019-Jun-12 06:28N 49°27' E 001°04'0 0.0
2019-Jun-12 05:58N 49°27' E 001°04'0 0.0
2019-Jun-12 05:28N 49°27' E 001°04'0 0.0
2019-Jun-12 04:58N 49°27' E 001°04'0 0.0
2019-Jun-12 04:28N 49°27' E 001°04'0 0.0
2019-Jun-12 03:58N 49°27' E 001°04'0 0.0
2019-Jun-12 03:28N 49°27' E 001°04'0 0.0
2019-Jun-12 02:58N 49°27' E 001°04'0 0.0
2019-Jun-12 01:58N 49°27' E 001°04'0 0.0
2019-Jun-12 01:28N 49°27' E 001°04'0 0.0
2019-Jun-12 00:58N 49°27' E 001°04'0 0.0
2019-Jun-12 00:25N 49°27' E 001°04'0 0.0
2019-Jun-11 23:58N 49°27' E 001°04'0 0.0
2019-Jun-11 23:25N 49°27' E 001°04'0 0.0
2019-Jun-11 22:58N 49°27' E 001°04'0 0.0
2019-Jun-11 22:25N 49°27' E 001°04'0 0.0
2019-Jun-11 21:58N 49°27' E 001°04'0 0.0
2019-Jun-11 21:28N 49°27' E 001°04'0 0.0
2019-Jun-11 20:58N 49°27' E 001°04'0 0.0
2019-Jun-11 20:28N 49°27' E 001°04'0 0.0
2019-Jun-11 19:58N 49°27' E 001°04'0 0.0
2019-Jun-11 19:28N 49°27' E 001°04'0 0.0
2019-Jun-11 18:52N 49°27' E 001°04'0 0.0
2019-Jun-11 18:28N 49°27' E 001°04'0 0.0
2019-Jun-11 17:58N 49°27' E 001°04'0 0.0
2019-Jun-11 17:28N 49°27' E 001°04'0 0.0
2019-Jun-11 16:58N 49°27' E 001°04'0 0.0
2019-Jun-11 16:28N 49°27' E 001°04'0 0.0
2019-Jun-11 15:49N 49°27' E 001°04'0 0.0
2019-Jun-11 15:28N 49°27' E 001°04'0 0.0
2019-Jun-11 14:58N 49°27' E 001°04'0 0.0
2019-Jun-11 14:28N 49°27' E 001°04'0 0.0
2019-Jun-11 13:58N 49°27' E 001°04'0 0.0
2019-Jun-11 13:28N 49°27' E 001°04'0 0.0
2019-Jun-11 12:58N 49°27' E 001°04'0 0.0
2019-Jun-11 12:28N 49°27' E 001°04'0 0.0
2019-Jun-11 11:58N 49°27' E 001°04'0 0.0
2019-Jun-11 11:28N 49°27' E 001°04'0 0.0
2019-Jun-11 10:55N 49°27' E 001°04'0 0.0
2019-Jun-11 10:28N 49°27' E 001°04'0 0.0
2019-Jun-11 09:52N 49°27' E 001°04'0 0.0
2019-Jun-11 09:28N 49°27' E 001°04'0 0.0
2019-Jun-11 09:01N 49°27' E 001°04'0 0.0
2019-Jun-11 08:30N 49°27' E 001°04'0 0.0
2019-Jun-11 08:00N 49°27' E 001°04'0 0.0
2019-Jun-11 07:30N 49°27' E 001°04'0 0.0
2019-Jun-11 07:00N 49°27' E 001°04'0 0.0
2019-Jun-11 06:30N 49°27' E 001°04'0 0.0
2019-Jun-11 05:57N 49°27' E 001°04'0 0.0
2019-Jun-11 05:24N 49°27' E 001°04'0 0.0
2019-Jun-11 05:00N 49°27' E 001°04'0 0.0
2019-Jun-11 04:30N 49°27' E 001°04'0 0.0
2019-Jun-11 03:54N 49°27' E 001°04'0 0.0
2019-Jun-11 03:30N 49°27' E 001°04'0 0.0
2019-Jun-11 02:57N 49°27' E 001°04'0 0.0
2019-Jun-11 02:30N 49°27' E 001°04'0 0.0
2019-Jun-11 02:00N 49°27' E 001°04'0 0.0
2019-Jun-11 01:30N 49°27' E 001°04'0 0.0
2019-Jun-11 01:00N 49°27' E 001°04'0 0.0
2019-Jun-11 00:30N 49°27' E 001°04'0 0.0
2019-Jun-11 00:00N 49°27' E 001°04'0 0.0
2019-Jun-10 23:30N 49°27' E 001°04'0 0.0
2019-Jun-10 23:00N 49°27' E 001°04'0 0.0
2019-Jun-10 22:30N 49°27' E 001°04'0 0.0
2019-Jun-10 22:00N 49°27' E 001°04'0 0.0
2019-Jun-10 21:30N 49°27' E 001°04'0 0.0
2019-Jun-10 21:00N 49°27' E 001°04'0 0.0
2019-Jun-10 20:30N 49°27' E 001°04'0 0.0
2019-Jun-10 19:57N 49°27' E 001°04'0 0.0
2019-Jun-10 19:30N 49°27' E 001°04'0 0.0
2019-Jun-10 19:00N 49°27' E 001°04'0 0.0
2019-Jun-10 18:30N 49°27' E 001°04'0 0.0
2019-Jun-10 18:00N 49°27' E 001°04'0 0.0
2019-Jun-10 17:30N 49°27' E 001°04'0 0.0
2019-Jun-10 17:00N 49°27' E 001°04'0 0.0
2019-Jun-10 16:27N 49°27' E 001°04'0 0.0
2019-Jun-10 16:00N 49°27' E 001°04'0 0.0
2019-Jun-10 15:30N 49°27' E 001°04'0 0.0
2019-Jun-10 15:00N 49°27' E 001°04'0 0.0
2019-Jun-10 14:30N 49°27' E 001°04'0 0.0
2019-Jun-10 14:00N 49°27' E 001°04'0 0.0
2019-Jun-10 13:30N 49°27' E 001°04'0 0.0
2019-Jun-10 13:00N 49°27' E 001°04'0 0.0
2019-Jun-10 12:30N 49°27' E 001°04'0 0.0
2019-Jun-10 12:00N 49°27' E 001°04'0 0.0
2019-Jun-10 11:30N 49°27' E 001°04'0 0.0
2019-Jun-10 11:00N 49°27' E 001°04'0 0.0
2019-Jun-10 10:30N 49°27' E 001°04'0 0.0
2019-Jun-10 10:00N 49°27' E 001°04'0 0.0
2019-Jun-10 09:30N 49°27' E 001°04'0 0.0
2019-Jun-10 09:00N 49°27' E 001°04'0 0.0
2019-Jun-10 08:30N 49°27' E 001°04'0 0.0
2019-Jun-10 08:00N 49°27' E 001°04'0 0.0
2019-Jun-10 07:30N 49°27' E 001°04'0 0.0
2019-Jun-10 07:00N 49°27' E 001°04'0 0.0
2019-Jun-10 06:24N 49°27' E 001°04'0 0.0
2019-Jun-10 06:00N 49°27' E 001°04'0 0.0
2019-Jun-10 05:30N 49°27' E 001°04'0 0.0
2019-Jun-10 05:00N 49°27' E 001°04'0 0.0
2019-Jun-10 04:30N 49°27' E 001°04'0 0.0
2019-Jun-10 04:00N 49°27' E 001°04'0 0.0
2019-Jun-10 03:30N 49°27' E 001°04'0 0.0
2019-Jun-10 03:00N 49°27' E 001°04'0 0.0
2019-Jun-10 02:30N 49°27' E 001°04'0 0.0
2019-Jun-10 02:00N 49°27' E 001°04'0 0.0
2019-Jun-10 01:27N 49°27' E 001°04'0 0.0
2019-Jun-10 01:00N 49°27' E 001°04'0 0.0
2019-Jun-10 00:30N 49°27' E 001°04'0 0.0
2019-Jun-09 23:57N 49°27' E 001°04'0 0.0
2019-Jun-09 23:30N 49°27' E 001°04'0 0.0
2019-Jun-09 23:00N 49°27' E 001°04'0 0.0
2019-Jun-09 22:30N 49°27' E 001°04'0 0.0
2019-Jun-09 21:57N 49°27' E 001°04'0 0.0
2019-Jun-09 21:27N 49°27' E 001°04'0 0.0
2019-Jun-09 20:57N 49°27' E 001°04'0 0.0
2019-Jun-09 20:27N 49°27' E 001°04'0 0.0
2019-Jun-09 19:57N 49°27' E 001°04'0 0.0
2019-Jun-09 19:30N 49°27' E 001°04'0 0.0
2019-Jun-09 18:57N 49°27' E 001°04'0 0.0
2019-Jun-09 18:30N 49°27' E 001°04'0 0.0
2019-Jun-09 17:56N 49°27' E 001°04'0 0.0
2019-Jun-09 17:29N 49°27' E 001°04'0 0.0
2019-Jun-09 16:59N 49°27' E 001°04'0 0.0
2019-Jun-09 16:29N 49°27' E 001°04'0 0.0
2019-Jun-09 15:59N 49°27' E 001°04'0 0.0
2019-Jun-09 15:29N 49°27' E 001°04'0 0.0
2019-Jun-09 14:59N 49°27' E 001°04'0 0.0
2019-Jun-09 14:26N 49°27' E 001°04'0 0.0
2019-Jun-09 13:59N 49°27' E 001°04'0 0.0
2019-Jun-09 13:29N 49°27' E 001°04'0 0.0
2019-Jun-09 12:56N 49°27' E 001°04'0 0.0
2019-Jun-09 12:29N 49°27' E 001°04'0 0.0
2019-Jun-09 11:59N 49°27' E 001°04'0 0.0
2019-Jun-09 11:29N 49°27' E 001°04'0 0.0
2019-Jun-09 10:56N 49°27' E 001°04'0 0.0
2019-Jun-09 10:29N 49°27' E 001°04'0 0.0
2019-Jun-09 09:59N 49°27' E 001°04'0 0.0
2019-Jun-09 09:29N 49°27' E 001°04'0 0.0
2019-Jun-09 08:56N 49°27' E 001°04'0 0.0
2019-Jun-09 08:29N 49°27' E 001°04'0 0.0
2019-Jun-09 07:59N 49°27' E 001°04'0 0.0
2019-Jun-09 07:29N 49°27' E 001°04'0 0.0
2019-Jun-09 06:59N 49°27' E 001°04'0 0.0
2019-Jun-09 06:29N 49°27' E 001°04'0 0.0
2019-Jun-09 05:59N 49°27' E 001°04'0 0.0
2019-Jun-09 05:29N 49°27' E 001°04'0 0.0
2019-Jun-09 04:59N 49°27' E 001°04'0 0.0
2019-Jun-09 03:59N 49°27' E 001°04'0 0.0
2019-Jun-09 03:29N 49°27' E 001°04'0 0.0
2019-Jun-09 02:59N 49°27' E 001°04'0 0.0
2019-Jun-09 02:29N 49°27' E 001°04'0 0.0
2019-Jun-09 01:59N 49°27' E 001°04'0 0.0
2019-Jun-09 01:29N 49°27' E 001°04'0 0.0
2019-Jun-09 00:56N 49°27' E 001°04'0 0.0
2019-Jun-09 00:26N 49°27' E 001°04'0 0.0
2019-Jun-08 23:59N 49°27' E 001°04'0 0.0
2019-Jun-08 23:29N 49°27' E 001°04'0 0.0
2019-Jun-08 22:56N 49°27' E 001°04'0 0.0
2019-Jun-08 22:29N 49°27' E 001°04'0 0.0
2019-Jun-08 21:59N 49°27' E 001°04'0 0.0
2019-Jun-08 21:29N 49°27' E 001°04'0 0.0
2019-Jun-08 20:56N 49°27' E 001°04'0 0.0
2019-Jun-08 20:29N 49°27' E 001°04'0 0.0
2019-Jun-08 19:59N 49°27' E 001°04'0 0.0
2019-Jun-08 19:29N 49°27' E 001°04'0 0.0
2019-Jun-08 18:59N 49°27' E 001°04'0 0.0
2019-Jun-08 18:29N 49°27' E 001°04'0 0.0
2019-Jun-08 17:59N 49°27' E 001°04'0 0.0
2019-Jun-08 17:29N 49°27' E 001°04'0 0.0
2019-Jun-08 16:59N 49°27' E 001°04'0 0.0
2019-Jun-08 16:26N 49°27' E 001°04'0 0.0
2019-Jun-08 15:59N 49°27' E 001°04'0 0.0
2019-Jun-08 15:29N 49°27' E 001°04'0 0.0
2019-Jun-08 14:59N 49°27' E 001°04'0 0.0
2019-Jun-08 14:29N 49°27' E 001°04'0 0.0
2019-Jun-08 13:59N 49°27' E 001°04'0 0.0
2019-Jun-08 13:29N 49°27' E 001°04'0 0.0
2019-Jun-08 12:53N 49°27' E 001°04'0 0.0
2019-Jun-08 12:26N 49°27' E 001°04'0 0.0
2019-Jun-08 11:56N 49°27' E 001°04'0 0.0
2019-Jun-08 11:29N 49°27' E 001°04'0 0.0
2019-Jun-08 10:59N 49°27' E 001°04'0 0.0
2019-Jun-08 10:23N 49°27' E 001°04'0 0.0
2019-Jun-08 09:53N 49°27' E 001°04'0 0.0
2019-Jun-08 09:29N 49°27' E 001°04'0 0.0
2019-Jun-08 08:56N 49°27' E 001°04'0 0.0
2019-Jun-08 08:29N 49°27' E 001°04'0 0.0
2019-Jun-08 07:59N 49°27' E 001°04'0 0.0
2019-Jun-08 07:29N 49°27' E 001°04'0 0.0
2019-Jun-08 06:59N 49°27' E 001°04'0 0.0
2019-Jun-08 06:29N 49°27' E 001°04'0 0.0
2019-Jun-08 05:59N 49°27' E 001°04'0 0.0
2019-Jun-08 05:26N 49°27' E 001°04'0 0.0
2019-Jun-08 04:59N 49°27' E 001°04'0 0.0
2019-Jun-08 04:28N 49°27' E 001°04'0 0.0
2019-Jun-08 03:58N 49°27' E 001°04'0 0.0
2019-Jun-08 03:28N 49°27' E 001°04'0 0.0
2019-Jun-08 02:58N 49°27' E 001°04'0 0.0
2019-Jun-08 02:28N 49°27' E 001°04'0 0.0
2019-Jun-08 01:58N 49°27' E 001°04'0 0.0
2019-Jun-08 01:22N 49°27' E 001°04'0 0.0
2019-Jun-08 00:58N 49°27' E 001°04'0 0.0
2019-Jun-08 00:28N 49°27' E 001°04'0 0.0
2019-Jun-07 23:58N 49°27' E 001°04'0 0.0
2019-Jun-07 23:28N 49°27' E 001°04'0 0.0
2019-Jun-07 22:58N 49°27' E 001°04'0 0.0
2019-Jun-07 22:25N 49°27' E 001°04'0 0.0
2019-Jun-07 21:58N 49°27' E 001°04'0 0.0
2019-Jun-07 21:28N 49°27' E 001°04'0 0.0
2019-Jun-07 20:58N 49°27' E 001°04'0 0.0
2019-Jun-07 20:28N 49°27' E 001°04'0 0.0
2019-Jun-07 19:55N 49°27' E 001°04'0 0.0
2019-Jun-07 19:28N 49°27' E 001°04'0 0.0
2019-Jun-07 18:58N 49°27' E 001°04'0 0.0
2019-Jun-07 18:28N 49°27' E 001°04'0 0.0
2019-Jun-07 17:58N 49°27' E 001°04'0 0.0
2019-Jun-07 17:28N 49°27' E 001°04'0 0.0
2019-Jun-07 16:58N 49°27' E 001°04'0 0.0
2019-Jun-07 16:28N 49°27' E 001°04'0 0.0
2019-Jun-07 15:58N 49°27' E 001°04'0 0.0
2019-Jun-07 15:28N 49°27' E 001°04'0 0.0
2019-Jun-07 14:58N 49°27' E 001°04'0 0.0
2019-Jun-07 14:28N 49°27' E 001°04'0 0.0
2019-Jun-07 13:55N 49°27' E 001°04'0 0.0
2019-Jun-07 13:25N 49°27' E 001°04'0 0.0
2019-Jun-07 12:58N 49°27' E 001°04'0 0.0
2019-Jun-07 12:28N 49°27' E 001°04'0 0.0
2019-Jun-07 11:58N 49°27' E 001°04'0 0.0
2019-Jun-07 11:25N 49°27' E 001°04'0 0.0
2019-Jun-07 10:58N 49°27' E 001°04'0 0.0
2019-Jun-07 10:25N 49°27' E 001°04'0 0.0
2019-Jun-07 09:58N 49°27' E 001°04'0 0.0
2019-Jun-07 09:28N 49°27' E 001°04'0 0.0
2019-Jun-07 08:52N 49°27' E 001°04'0 0.0
2019-Jun-07 08:28N 49°27' E 001°04'0 0.0
2019-Jun-07 07:58N 49°27' E 001°04'0 0.0
2019-Jun-07 07:28N 49°27' E 001°04'0 0.0
2019-Jun-07 06:58N 49°27' E 001°04'0 0.0
2019-Jun-07 06:25N 49°27' E 001°04'0 0.0
2019-Jun-07 05:55N 49°27' E 001°04'0 0.0
2019-Jun-07 05:28N 49°27' E 001°04'0 0.0
2019-Jun-07 04:58N 49°27' E 001°04'0 0.0
2019-Jun-07 04:25N 49°27' E 001°04'0 0.0
2019-Jun-07 03:58N 49°27' E 001°04'0 0.0
2019-Jun-07 03:28N 49°27' E 001°04'0 0.0
2019-Jun-07 02:55N 49°27' E 001°04'0 0.0
2019-Jun-07 02:28N 49°27' E 001°04'0 0.0
2019-Jun-07 01:55N 49°27' E 001°04'0 0.8
2019-Jun-07 01:30N 49°27' E 001°04'0 0.8
2019-Jun-07 00:58N 49°27' E 001°03'0 0.0
2019-Jun-07 00:28N 49°27' E 001°03'0 0.0
2019-Jun-06 23:58N 49°27' E 001°03'0 0.0
2019-Jun-06 23:28N 49°27' E 001°03'0 0.0
2019-Jun-06 22:58N 49°27' E 001°03'0 0.0
2019-Jun-06 22:28N 49°27' E 001°03'0 0.0
2019-Jun-06 21:58N 49°27' E 001°03'0 0.0
2019-Jun-06 21:28N 49°27' E 001°03'0 0.0
2019-Jun-06 20:58N 49°27' E 001°03'0 0.0
2019-Jun-06 20:28N 49°27' E 001°03'0 0.0
2019-Jun-06 19:58N 49°27' E 001°03'0 0.0
2019-Jun-06 19:25N 49°27' E 001°03'0 0.0
2019-Jun-06 18:55N 49°27' E 001°03'0 0.0
2019-Jun-06 18:28N 49°27' E 001°03'0 0.0
2019-Jun-06 17:58N 49°27' E 001°03'0 0.0
2019-Jun-06 17:28N 49°27' E 001°03'0 0.0
2019-Jun-06 16:58N 49°27' E 001°03'0 0.0
2019-Jun-06 16:31N 49°27' E 001°03'3 5.5
2019-Jun-06 16:00N 49°24' E 001°01'4 7.8
2019-Jun-06 15:30N 49°21' E 000°58'  
Track history (hours):
 
Tides and Currents Weather Stations Pressure Air Temp Water Temp Dewpoint Dewpoint Depression Visibility Wind Speed Wind Dir Waves Ship Positions

Tenacious (United Kingdom)

Ship's website: http://www.jst.org.uk/

Last reported at 2019-Jun-16 15:01 UTC. Time now 2019-Jun-16 15:07 UTC.
Position N 49°24' E 000°49'.

Length 65 m; beam 10.6 m; draft 4.6 m.

Type: Sailing vessel. MMSI: 235000230.

Date/timePositionNaut miles runAvg speedWind from/ knotsBaromVisibWave heightAir tempDewpointWater temp
2019-Jun-16 15:01N 49°24' E 000°49'2 4.9
2019-Jun-16 14:30N 49°26' E 000°52'4 7.3
2019-Jun-16 14:00N 49°29' E 000°54'4 8.0
2019-Jun-16 13:30N 49°25' E 000°56'4 7.2
2019-Jun-16 13:01N 49°22' E 000°55'3 5.8
2019-Jun-16 12:31N 49°22' E 000°60'3 6.3
2019-Jun-16 12:01N 49°25' E 001°01'2 5.0
2019-Jun-16 11:30N 49°27' E 001°04'0 0.2
2019-Jun-16 10:58N 49°27' E 001°04'0 0.0
2019-Jun-16 10:28N 49°27' E 001°04'0 0.0
2019-Jun-16 09:58N 49°27' E 001°04'0 0.0
2019-Jun-16 09:28N 49°27' E 001°04'0 0.0
2019-Jun-16 08:58N 49°27' E 001°04'0 0.0
2019-Jun-16 08:28N 49°27' E 001°04'0 0.0
2019-Jun-16 07:58N 49°27' E 001°04'0 0.0
2019-Jun-16 07:25N 49°27' E 001°04'0 0.0
2019-Jun-16 06:55N 49°27' E 001°04'0 0.0
2019-Jun-16 06:28N 49°27' E 001°04'0 0.0
2019-Jun-16 05:58N 49°27' E 001°04'0 0.0
2019-Jun-16 05:28N 49°27' E 001°04'0 0.0
2019-Jun-16 04:52N 49°27' E 001°04'0 0.0
2019-Jun-16 04:28N 49°27' E 001°04'0 0.0
2019-Jun-16 03:58N 49°27' E 001°04'0 0.0
2019-Jun-16 03:31N 49°27' E 001°04'0 0.0
2019-Jun-16 03:01N 49°27' E 001°04'0 0.0
2019-Jun-16 02:30N 49°27' E 001°04'0 0.0
2019-Jun-16 02:00N 49°27' E 001°04'0 0.0
2019-Jun-16 01:30N 49°27' E 001°04'0 0.0
2019-Jun-16 01:00N 49°27' E 001°04'0 0.0
2019-Jun-16 00:30N 49°27' E 001°04'0 0.0
2019-Jun-16 00:00N 49°27' E 001°04'0 0.0
2019-Jun-15 23:27N 49°27' E 001°04'0 0.0
2019-Jun-15 23:00N 49°27' E 001°04'0 0.0
2019-Jun-15 22:27N 49°27' E 001°04'0 0.0
2019-Jun-15 22:00N 49°27' E 001°04'0 0.0
2019-Jun-15 21:30N 49°27' E 001°04'0 0.0
2019-Jun-15 21:00N 49°27' E 001°04'0 0.0
2019-Jun-15 20:27N 49°27' E 001°04'0 0.0
2019-Jun-15 20:00N 49°27' E 001°04'0 0.0
2019-Jun-15 19:30N 49°27' E 001°04'0 0.0
2019-Jun-15 19:00N 49°27' E 001°04'0 0.0
2019-Jun-15 18:30N 49°27' E 001°04'0 0.0
2019-Jun-15 18:00N 49°27' E 001°04'0 0.0
2019-Jun-15 17:30N 49°27' E 001°04'0 0.0
2019-Jun-15 17:00N 49°27' E 001°04'0 0.0
2019-Jun-15 16:30N 49°27' E 001°04'0 0.0
2019-Jun-15 15:57N 49°27' E 001°04'0 0.0
2019-Jun-15 15:30N 49°27' E 001°04'0 0.0
2019-Jun-15 15:00N 49°27' E 001°04'0 0.0
2019-Jun-15 14:30N 49°27' E 001°04'0 0.0
2019-Jun-15 14:00N 49°27' E 001°04'0 0.0
2019-Jun-15 13:30N 49°27' E 001°04'0 0.0
2019-Jun-15 12:57N 49°27' E 001°04'0 0.0
2019-Jun-15 12:30N 49°27' E 001°04'0 0.0
2019-Jun-15 12:00N 49°27' E 001°04'0 0.0
2019-Jun-15 11:21N 49°27' E 001°04'0 0.0
2019-Jun-15 11:00N 49°27' E 001°04'0 0.0
2019-Jun-15 10:30N 49°27' E 001°04'0 0.0
2019-Jun-15 10:00N 49°27' E 001°04'0 0.0
2019-Jun-15 09:30N 49°27' E 001°04'0 0.0
2019-Jun-15 09:00N 49°27' E 001°04'0 0.0
2019-Jun-15 08:30N 49°27' E 001°04'0 0.0
2019-Jun-15 07:57N 49°27' E 001°04'0 0.0
2019-Jun-15 07:18N 49°27' E 001°04'0 0.0
2019-Jun-15 07:00N 49°27' E 001°04'0 0.0
2019-Jun-15 06:27N 49°27' E 001°04'0 0.0
2019-Jun-15 06:00N 49°27' E 001°04'0 0.0
2019-Jun-15 05:30N 49°27' E 001°04'0 0.0
2019-Jun-15 05:00N 49°27' E 001°04'0 0.0
2019-Jun-15 04:27N 49°27' E 001°04'0 0.0
2019-Jun-15 04:00N 49°27' E 001°04'0 0.0
2019-Jun-15 03:30N 49°27' E 001°04'0 0.0
2019-Jun-15 02:54N 49°27' E 001°04'0 0.0
2019-Jun-15 02:30N 49°27' E 001°04'0 0.0
2019-Jun-15 02:00N 49°27' E 001°04'0 0.0
2019-Jun-15 01:30N 49°27' E 001°04'0 0.0
2019-Jun-15 00:54N 49°27' E 001°04'0 0.0
2019-Jun-15 00:30N 49°27' E 001°04'0 0.0
2019-Jun-15 00:00N 49°27' E 001°04'0 0.0
2019-Jun-14 23:27N 49°27' E 001°04'0 0.0
2019-Jun-14 23:00N 49°27' E 001°04'0 0.0
2019-Jun-14 22:30N 49°27' E 001°04'0 0.0
2019-Jun-14 22:00N 49°27' E 001°04'0 0.0
2019-Jun-14 21:24N 49°27' E 001°04'0 0.0
2019-Jun-14 20:54N 49°27' E 001°04'0 0.0
2019-Jun-14 20:24N 49°27' E 001°04'0 0.0
2019-Jun-14 19:57N 49°27' E 001°04'0 0.0
2019-Jun-14 19:30N 49°27' E 001°04'0 0.0
2019-Jun-14 19:00N 49°27' E 001°04'0 0.0
2019-Jun-14 18:30N 49°27' E 001°04'0 0.0
2019-Jun-14 18:00N 49°27' E 001°04'0 0.0
2019-Jun-14 17:30N 49°27' E 001°04'0 0.0
2019-Jun-14 16:54N 49°27' E 001°04'0 0.0
2019-Jun-14 16:30N 49°27' E 001°04'0 0.0
2019-Jun-14 16:00N 49°27' E 001°04'0 0.0
2019-Jun-14 15:21N 49°27' E 001°04'0 0.0
2019-Jun-14 14:54N 49°27' E 001°04'0 0.0
2019-Jun-14 14:30N 49°27' E 001°04'0 0.0
2019-Jun-14 13:51N 49°27' E 001°04'0 0.0
2019-Jun-14 13:30N 49°27' E 001°04'0 0.0
2019-Jun-14 13:00N 49°27' E 001°04'0 0.0
2019-Jun-14 12:23N 49°27' E 001°04'0 0.0
2019-Jun-14 11:53N 49°27' E 001°04'0 0.0
2019-Jun-14 11:29N 49°27' E 001°04'0 0.0
2019-Jun-14 10:59N 49°27' E 001°04'0 0.0
2019-Jun-14 10:29N 49°27' E 001°04'0 0.0
2019-Jun-14 09:59N 49°27' E 001°04'0 0.0
2019-Jun-14 09:20N 49°27' E 001°04'0 0.0
2019-Jun-14 08:59N 49°27' E 001°04'0 0.0
2019-Jun-14 08:29N 49°27' E 001°04'0 0.0
2019-Jun-14 07:56N 49°27' E 001°04'0 0.0
2019-Jun-14 07:14N 49°27' E 001°04'0 0.0
2019-Jun-14 06:59N 49°27' E 001°04'0 0.0
2019-Jun-14 06:29N 49°27' E 001°04'0 0.0
2019-Jun-14 05:59N 49°27' E 001°04'0 0.0
2019-Jun-14 05:29N 49°27' E 001°04'0 0.0
2019-Jun-14 04:59N 49°27' E 001°04'0 0.0
2019-Jun-14 04:29N 49°27' E 001°04'0 0.0
2019-Jun-14 03:59N 49°27' E 001°04'0 0.0
2019-Jun-14 03:26N 49°27' E 001°04'0 0.0
2019-Jun-14 02:59N 49°27' E 001°04'0 0.0
2019-Jun-14 02:29N 49°27' E 001°04'0 0.0
2019-Jun-14 01:59N 49°27' E 001°04'0 0.0
2019-Jun-14 01:29N 49°27' E 001°04'0 0.0
2019-Jun-14 00:59N 49°27' E 001°04'0 0.0
2019-Jun-14 00:29N 49°27' E 001°04'0 0.0
2019-Jun-13 23:59N 49°27' E 001°04'0 0.0
2019-Jun-13 23:29N 49°27' E 001°04'0 0.0
2019-Jun-13 22:59N 49°27' E 001°04'0 0.0
2019-Jun-13 22:29N 49°27' E 001°04'0 0.0
2019-Jun-13 21:59N 49°27' E 001°04'0 0.0
2019-Jun-13 21:26N 49°27' E 001°04'0 0.0
2019-Jun-13 20:59N 49°27' E 001°04'0 0.0
2019-Jun-13 20:29N 49°27' E 001°04'0 0.0
2019-Jun-13 19:59N 49°27' E 001°04'0 0.0
2019-Jun-13 19:29N 49°27' E 001°04'0 0.0
2019-Jun-13 18:59N 49°27' E 001°04'0 0.0
2019-Jun-13 18:29N 49°27' E 001°04'0 0.0
2019-Jun-13 17:59N 49°27' E 001°04'0 0.0
2019-Jun-13 17:29N 49°27' E 001°04'0 0.0
2019-Jun-13 16:59N 49°27' E 001°04'0 0.0
2019-Jun-13 16:23N 49°27' E 001°04'0 0.0
2019-Jun-13 15:56N 49°27' E 001°04'0 0.0
2019-Jun-13 15:29N 49°27' E 001°04'0 0.0
2019-Jun-13 14:53N 49°27' E 001°04'0 0.0
2019-Jun-13 14:29N 49°27' E 001°04'0 0.0
2019-Jun-13 13:59N 49°27' E 001°04'0 0.0
2019-Jun-13 13:29N 49°27' E 001°04'0 0.0
2019-Jun-13 12:56N 49°27' E 001°04'0 0.0
2019-Jun-13 12:29N 49°27' E 001°04'0 0.0
2019-Jun-13 11:59N 49°27' E 001°04'0 0.0
2019-Jun-13 11:29N 49°27' E 001°04'0 0.0
2019-Jun-13 10:59N 49°27' E 001°04'0 0.0
2019-Jun-13 10:29N 49°27' E 001°04'0 0.0
2019-Jun-13 09:59N 49°27' E 001°04'0 0.0
2019-Jun-13 09:29N 49°27' E 001°04'0 0.0
2019-Jun-13 08:59N 49°27' E 001°04'0 0.0
2019-Jun-13 08:29N 49°27' E 001°04'0 0.0
2019-Jun-13 07:56N 49°27' E 001°04'0 0.0
2019-Jun-13 07:29N 49°27' E 001°04'0 0.0
2019-Jun-13 06:59N 49°27' E 001°04'0 0.0
2019-Jun-13 06:26N 49°27' E 001°04'0 0.0
2019-Jun-13 05:59N 49°27' E 001°04'0 0.0
2019-Jun-13 05:29N 49°27' E 001°04'0 0.0
2019-Jun-13 04:59N 49°27' E 001°04'0 0.0
2019-Jun-13 04:29N 49°27' E 001°04'0 0.0
2019-Jun-13 03:59N 49°27' E 001°04'0 0.0
2019-Jun-13 03:29N 49°27' E 001°04'0 0.0
2019-Jun-13 02:59N 49°27' E 001°04'0 0.0
2019-Jun-13 02:29N 49°27' E 001°04'0 0.0
2019-Jun-13 01:59N 49°27' E 001°04'0 0.0
2019-Jun-13 01:29N 49°27' E 001°04'0 0.0
2019-Jun-13 00:59N 49°27' E 001°04'0 0.0
2019-Jun-13 00:29N 49°27' E 001°04'0 0.0
2019-Jun-12 23:59N 49°27' E 001°04'0 0.0
2019-Jun-12 23:26N 49°27' E 001°04'0 0.0
2019-Jun-12 22:59N 49°27' E 001°04'0 0.0
2019-Jun-12 22:25N 49°27' E 001°04'0 0.0
2019-Jun-12 21:59N 49°27' E 001°04'0 0.0
2019-Jun-12 21:28N 49°27' E 001°04'0 0.0
2019-Jun-12 20:58N 49°27' E 001°04'0 0.0
2019-Jun-12 20:25N 49°27' E 001°04'0 0.0
2019-Jun-12 19:55N 49°27' E 001°04'0 0.0
2019-Jun-12 19:28N 49°27' E 001°04'0 0.0
2019-Jun-12 18:58N 49°27' E 001°04'0 0.0
2019-Jun-12 18:22N 49°27' E 001°04'0 0.0
2019-Jun-12 17:58N 49°27' E 001°04'0 0.0
2019-Jun-12 17:10N 49°27' E 001°04'0 0.0
2019-Jun-12 16:58N 49°27' E 001°04'0 0.0
2019-Jun-12 16:28N 49°27' E 001°04'0 0.0
2019-Jun-12 15:55N 49°27' E 001°04'0 0.0
2019-Jun-12 15:28N 49°27' E 001°04'0 0.0
2019-Jun-12 14:58N 49°27' E 001°04'0 0.0
2019-Jun-12 14:28N 49°27' E 001°04'0 0.0
2019-Jun-12 13:58N 49°27' E 001°04'0 0.0
2019-Jun-12 13:28N 49°27' E 001°04'0 0.0
2019-Jun-12 12:58N 49°27' E 001°04'0 0.0
2019-Jun-12 12:28N 49°27' E 001°04'0 0.0
2019-Jun-12 11:58N 49°27' E 001°04'0 0.0
2019-Jun-12 11:28N 49°27' E 001°04'0 0.0
2019-Jun-12 10:58N 49°27' E 001°04'0 0.0
2019-Jun-12 10:28N 49°27' E 001°04'0 0.0
2019-Jun-12 09:58N 49°27' E 001°04'0 0.0
2019-Jun-12 09:28N 49°27' E 001°04'0 0.0
2019-Jun-12 08:58N 49°27' E 001°04'0 0.0
2019-Jun-12 08:28N 49°27' E 001°04'0 0.0
2019-Jun-12 07:58N 49°27' E 001°04'0 0.0
2019-Jun-12 07:28N 49°27' E 001°04'0 0.0
2019-Jun-12 06:58N 49°27' E 001°04'0 0.0
2019-Jun-12 06:28N 49°27' E 001°04'0 0.0
2019-Jun-12 05:58N 49°27' E 001°04'0 0.0
2019-Jun-12 05:28N 49°27' E 001°04'0 0.0
2019-Jun-12 04:58N 49°27' E 001°04'0 0.0
2019-Jun-12 04:28N 49°27' E 001°04'0 0.0
2019-Jun-12 03:58N 49°27' E 001°04'0 0.0
2019-Jun-12 03:28N 49°27' E 001°04'0 0.0
2019-Jun-12 02:58N 49°27' E 001°04'0 0.0
2019-Jun-12 01:58N 49°27' E 001°04'0 0.0
2019-Jun-12 01:28N 49°27' E 001°04'0 0.0
2019-Jun-12 00:58N 49°27' E 001°04'0 0.0
2019-Jun-12 00:25N 49°27' E 001°04'0 0.0
2019-Jun-11 23:58N 49°27' E 001°04'0 0.0
2019-Jun-11 23:25N 49°27' E 001°04'0 0.0
2019-Jun-11 22:58N 49°27' E 001°04'0 0.0
2019-Jun-11 22:25N 49°27' E 001°04'0 0.0
2019-Jun-11 21:58N 49°27' E 001°04'0 0.0
2019-Jun-11 21:28N 49°27' E 001°04'0 0.0
2019-Jun-11 20:58N 49°27' E 001°04'0 0.0
2019-Jun-11 20:28N 49°27' E 001°04'0 0.0
2019-Jun-11 19:58N 49°27' E 001°04'0 0.0
2019-Jun-11 19:28N 49°27' E 001°04'0 0.0
2019-Jun-11 18:52N 49°27' E 001°04'0 0.0
2019-Jun-11 18:28N 49°27' E 001°04'0 0.0
2019-Jun-11 17:58N 49°27' E 001°04'0 0.0
2019-Jun-11 17:28N 49°27' E 001°04'0 0.0
2019-Jun-11 16:58N 49°27' E 001°04'0 0.0
2019-Jun-11 16:28N 49°27' E 001°04'0 0.0
2019-Jun-11 15:49N 49°27' E 001°04'0 0.0
2019-Jun-11 15:28N 49°27' E 001°04'0 0.0
2019-Jun-11 14:58N 49°27' E 001°04'0 0.0
2019-Jun-11 14:28N 49°27' E 001°04'0 0.0
2019-Jun-11 13:58N 49°27' E 001°04'0 0.0
2019-Jun-11 13:28N 49°27' E 001°04'0 0.0
2019-Jun-11 12:58N 49°27' E 001°04'0 0.0
2019-Jun-11 12:28N 49°27' E 001°04'0 0.0
2019-Jun-11 11:58N 49°27' E 001°04'0 0.0
2019-Jun-11 11:28N 49°27' E 001°04'0 0.0
2019-Jun-11 10:55N 49°27' E 001°04'0 0.0
2019-Jun-11 10:28N 49°27' E 001°04'0 0.0
2019-Jun-11 09:52N 49°27' E 001°04'0 0.0
2019-Jun-11 09:28N 49°27' E 001°04'0 0.0
2019-Jun-11 09:01N 49°27' E 001°04'0 0.0
2019-Jun-11 08:30N 49°27' E 001°04'0 0.0
2019-Jun-11 08:00N 49°27' E 001°04'0 0.0
2019-Jun-11 07:30N 49°27' E 001°04'0 0.0
2019-Jun-11 07:00N 49°27' E 001°04'0 0.0
2019-Jun-11 06:30N 49°27' E 001°04'0 0.0
2019-Jun-11 05:57N 49°27' E 001°04'0 0.0
2019-Jun-11 05:24N 49°27' E 001°04'0 0.0
2019-Jun-11 05:00N 49°27' E 001°04'0 0.0
2019-Jun-11 04:30N 49°27' E 001°04'0 0.0
2019-Jun-11 03:54N 49°27' E 001°04'0 0.0
2019-Jun-11 03:30N 49°27' E 001°04'0 0.0
2019-Jun-11 02:57N 49°27' E 001°04'0 0.0
2019-Jun-11 02:30N 49°27' E 001°04'0 0.0
2019-Jun-11 02:00N 49°27' E 001°04'0 0.0
2019-Jun-11 01:30N 49°27' E 001°04'0 0.0
2019-Jun-11 01:00N 49°27' E 001°04'0 0.0
2019-Jun-11 00:30N 49°27' E 001°04'0 0.0
2019-Jun-11 00:00N 49°27' E 001°04'0 0.0
2019-Jun-10 23:30N 49°27' E 001°04'0 0.0
2019-Jun-10 23:00N 49°27' E 001°04'0 0.0
2019-Jun-10 22:30N 49°27' E 001°04'0 0.0
2019-Jun-10 22:00N 49°27' E 001°04'0 0.0
2019-Jun-10 21:30N 49°27' E 001°04'0 0.0
2019-Jun-10 21:00N 49°27' E 001°04'0 0.0
2019-Jun-10 20:30N 49°27' E 001°04'0 0.0
2019-Jun-10 19:57N 49°27' E 001°04'0 0.0
2019-Jun-10 19:30N 49°27' E 001°04'0 0.0
2019-Jun-10 19:00N 49°27' E 001°04'0 0.0
2019-Jun-10 18:30N 49°27' E 001°04'0 0.0
2019-Jun-10 18:00N 49°27' E 001°04'0 0.0
2019-Jun-10 17:30N 49°27' E 001°04'0 0.0
2019-Jun-10 17:00N 49°27' E 001°04'0 0.0
2019-Jun-10 16:27N 49°27' E 001°04'0 0.0
2019-Jun-10 16:00N 49°27' E 001°04'0 0.0
2019-Jun-10 15:30N 49°27' E 001°04'0 0.0
2019-Jun-10 15:00N 49°27' E 001°04'0 0.0
2019-Jun-10 14:30N 49°27' E 001°04'0 0.0
2019-Jun-10 14:00N 49°27' E 001°04'0 0.0
2019-Jun-10 13:30N 49°27' E 001°04'0 0.0
2019-Jun-10 13:00N 49°27' E 001°04'0 0.0
2019-Jun-10 12:30N 49°27' E 001°04'0 0.0
2019-Jun-10 12:00N 49°27' E 001°04'0 0.0
2019-Jun-10 11:30N 49°27' E 001°04'0 0.0
2019-Jun-10 11:00N 49°27' E 001°04'0 0.0
2019-Jun-10 10:30N 49°27' E 001°04'0 0.0
2019-Jun-10 10:00N 49°27' E 001°04'0 0.0
2019-Jun-10 09:30N 49°27' E 001°04'0 0.0
2019-Jun-10 09:00N 49°27' E 001°04'0 0.0
2019-Jun-10 08:30N 49°27' E 001°04'0 0.0
2019-Jun-10 08:00N 49°27' E 001°04'0 0.0
2019-Jun-10 07:30N 49°27' E 001°04'0 0.0
2019-Jun-10 07:00N 49°27' E 001°04'0 0.0
2019-Jun-10 06:24N 49°27' E 001°04'0 0.0
2019-Jun-10 06:00N 49°27' E 001°04'0 0.0
2019-Jun-10 05:30N 49°27' E 001°04'0 0.0
2019-Jun-10 05:00N 49°27' E 001°04'0 0.0
2019-Jun-10 04:30N 49°27' E 001°04'0 0.0
2019-Jun-10 04:00N 49°27' E 001°04'0 0.0
2019-Jun-10 03:30N 49°27' E 001°04'0 0.0
2019-Jun-10 03:00N 49°27' E 001°04'0 0.0
2019-Jun-10 02:30N 49°27' E 001°04'0 0.0
2019-Jun-10 02:00N 49°27' E 001°04'0 0.0
2019-Jun-10 01:27N 49°27' E 001°04'0 0.0
2019-Jun-10 01:00N 49°27' E 001°04'0 0.0
2019-Jun-10 00:30N 49°27' E 001°04'0 0.0
2019-Jun-09 23:57N 49°27' E 001°04'0 0.0
2019-Jun-09 23:30N 49°27' E 001°04'0 0.0
2019-Jun-09 23:00N 49°27' E 001°04'0 0.0
2019-Jun-09 22:30N 49°27' E 001°04'0 0.0
2019-Jun-09 21:57N 49°27' E 001°04'0 0.0
2019-Jun-09 21:27N 49°27' E 001°04'0 0.0
2019-Jun-09 20:57N 49°27' E 001°04'0 0.0
2019-Jun-09 20:27N 49°27' E 001°04'0 0.0
2019-Jun-09 19:57N 49°27' E 001°04'0 0.0
2019-Jun-09 19:30N 49°27' E 001°04'0 0.0
2019-Jun-09 18:57N 49°27' E 001°04'0 0.0
2019-Jun-09 18:30N 49°27' E 001°04'0 0.0
2019-Jun-09 17:56N 49°27' E 001°04'0 0.0
2019-Jun-09 17:29N 49°27' E 001°04'0 0.0
2019-Jun-09 16:59N 49°27' E 001°04'0 0.0
2019-Jun-09 16:29N 49°27' E 001°04'0 0.0
2019-Jun-09 15:59N 49°27' E 001°04'0 0.0
2019-Jun-09 15:29N 49°27' E 001°04'0 0.0
2019-Jun-09 14:59N 49°27' E 001°04'0 0.0
2019-Jun-09 14:26N 49°27' E 001°04'0 0.0
2019-Jun-09 13:59N 49°27' E 001°04'0 0.0
2019-Jun-09 13:29N 49°27' E 001°04'0 0.0
2019-Jun-09 12:56N 49°27' E 001°04'0 0.0
2019-Jun-09 12:29N 49°27' E 001°04'0 0.0
2019-Jun-09 11:59N 49°27' E 001°04'0 0.0
2019-Jun-09 11:29N 49°27' E 001°04'0 0.0
2019-Jun-09 10:56N 49°27' E 001°04'0 0.0
2019-Jun-09 10:29N 49°27' E 001°04'0 0.0
2019-Jun-09 09:59N 49°27' E 001°04'0 0.0
2019-Jun-09 09:29N 49°27' E 001°04'0 0.0
2019-Jun-09 08:56N 49°27' E 001°04'0 0.0
2019-Jun-09 08:29N 49°27' E 001°04'0 0.0
2019-Jun-09 07:59N 49°27' E 001°04'0 0.0
2019-Jun-09 07:29N 49°27' E 001°04'0 0.0
2019-Jun-09 06:59N 49°27' E 001°04'0 0.0
2019-Jun-09 06:29N 49°27' E 001°04'0 0.0
2019-Jun-09 05:59N 49°27' E 001°04'0 0.0
2019-Jun-09 05:29N 49°27' E 001°04'0 0.0
2019-Jun-09 04:59N 49°27' E 001°04'0 0.0
2019-Jun-09 03:59N 49°27' E 001°04'0 0.0
2019-Jun-09 03:29N 49°27' E 001°04'0 0.0
2019-Jun-09 02:59N 49°27' E 001°04'0 0.0
2019-Jun-09 02:29N 49°27' E 001°04'0 0.0
2019-Jun-09 01:59N 49°27' E 001°04'0 0.0
2019-Jun-09 01:29N 49°27' E 001°04'0 0.0
2019-Jun-09 00:56N 49°27' E 001°04'0 0.0
2019-Jun-09 00:26N 49°27' E 001°04'0 0.0
2019-Jun-08 23:59N 49°27' E 001°04'0 0.0
2019-Jun-08 23:29N 49°27' E 001°04'0 0.0
2019-Jun-08 22:56N 49°27' E 001°04'0 0.0
2019-Jun-08 22:29N 49°27' E 001°04'0 0.0
2019-Jun-08 21:59N 49°27' E 001°04'0 0.0
2019-Jun-08 21:29N 49°27' E 001°04'0 0.0
2019-Jun-08 20:56N 49°27' E 001°04'0 0.0
2019-Jun-08 20:29N 49°27' E 001°04'0 0.0
2019-Jun-08 19:59N 49°27' E 001°04'0 0.0
2019-Jun-08 19:29N 49°27' E 001°04'0 0.0
2019-Jun-08 18:59N 49°27' E 001°04'0 0.0
2019-Jun-08 18:29N 49°27' E 001°04'0 0.0
2019-Jun-08 17:59N 49°27' E 001°04'0 0.0
2019-Jun-08 17:29N 49°27' E 001°04'0 0.0
2019-Jun-08 16:59N 49°27' E 001°04'0 0.0
2019-Jun-08 16:26N 49°27' E 001°04'0 0.0
2019-Jun-08 15:59N 49°27' E 001°04'0 0.0
2019-Jun-08 15:29N 49°27' E 001°04'0 0.0
2019-Jun-08 14:59N 49°27' E 001°04'0 0.0
2019-Jun-08 14:29N 49°27' E 001°04'0 0.0
2019-Jun-08 13:59N 49°27' E 001°04'0 0.0
2019-Jun-08 13:29N 49°27' E 001°04'0 0.0
2019-Jun-08 12:53N 49°27' E 001°04'0 0.0
2019-Jun-08 12:26N 49°27' E 001°04'0 0.0
2019-Jun-08 11:56N 49°27' E 001°04'0 0.0
2019-Jun-08 11:29N 49°27' E 001°04'0 0.0
2019-Jun-08 10:59N 49°27' E 001°04'0 0.0
2019-Jun-08 10:23N 49°27' E 001°04'0 0.0
2019-Jun-08 09:53N 49°27' E 001°04'0 0.0
2019-Jun-08 09:29N 49°27' E 001°04'0 0.0
2019-Jun-08 08:56N 49°27' E 001°04'0 0.0
2019-Jun-08 08:29N 49°27' E 001°04'0 0.0
2019-Jun-08 07:59N 49°27' E 001°04'0 0.0
2019-Jun-08 07:29N 49°27' E 001°04'0 0.0
2019-Jun-08 06:59N 49°27' E 001°04'0 0.0
2019-Jun-08 06:29N 49°27' E 001°04'0 0.0
2019-Jun-08 05:59N 49°27' E 001°04'0 0.0
2019-Jun-08 05:26N 49°27' E 001°04'0 0.0
2019-Jun-08 04:59N 49°27' E 001°04'0 0.0
2019-Jun-08 04:28N 49°27' E 001°04'0 0.0
2019-Jun-08 03:58N 49°27' E 001°04'0 0.0
2019-Jun-08 03:28N 49°27' E 001°04'0 0.0
2019-Jun-08 02:58N 49°27' E 001°04'0 0.0
2019-Jun-08 02:28N 49°27' E 001°04'0 0.0
2019-Jun-08 01:58N 49°27' E 001°04'0 0.0
2019-Jun-08 01:22N 49°27' E 001°04'0 0.0
2019-Jun-08 00:58N 49°27' E 001°04'0 0.0
2019-Jun-08 00:28N 49°27' E 001°04'0 0.0
2019-Jun-07 23:58N 49°27' E 001°04'0 0.0
2019-Jun-07 23:28N 49°27' E 001°04'0 0.0
2019-Jun-07 22:58N 49°27' E 001°04'0 0.0
2019-Jun-07 22:25N 49°27' E 001°04'0 0.0
2019-Jun-07 21:58N 49°27' E 001°04'0 0.0
2019-Jun-07 21:28N 49°27' E 001°04'0 0.0
2019-Jun-07 20:58N 49°27' E 001°04'0 0.0
2019-Jun-07 20:28N 49°27' E 001°04'0 0.0
2019-Jun-07 19:55N 49°27' E 001°04'0 0.0
2019-Jun-07 19:28N 49°27' E 001°04'0 0.0
2019-Jun-07 18:58N 49°27' E 001°04'0 0.0
2019-Jun-07 18:28N 49°27' E 001°04'0 0.0
2019-Jun-07 17:58N 49°27' E 001°04'0 0.0
2019-Jun-07 17:28N 49°27' E 001°04'0 0.0
2019-Jun-07 16:58N 49°27' E 001°04'0 0.0
2019-Jun-07 16:28N 49°27' E 001°04'0 0.0
2019-Jun-07 15:58N 49°27' E 001°04'0 0.0
2019-Jun-07 15:28N 49°27' E 001°04'0 0.0
2019-Jun-07 14:58N 49°27' E 001°04'0 0.0
2019-Jun-07 14:28N 49°27' E 001°04'0 0.0
2019-Jun-07 13:55N 49°27' E 001°04'0 0.0
2019-Jun-07 13:25N 49°27' E 001°04'0 0.0
2019-Jun-07 12:58N 49°27' E 001°04'0 0.0
2019-Jun-07 12:28N 49°27' E 001°04'0 0.0
2019-Jun-07 11:58N 49°27' E 001°04'0 0.0
2019-Jun-07 11:25N 49°27' E 001°04'0 0.0
2019-Jun-07 10:58N 49°27' E 001°04'0 0.0
2019-Jun-07 10:25N 49°27' E 001°04'0 0.0
2019-Jun-07 09:58N 49°27' E 001°04'0 0.0
2019-Jun-07 09:28N 49°27' E 001°04'0 0.0
2019-Jun-07 08:52N 49°27' E 001°04'0 0.0
2019-Jun-07 08:28N 49°27' E 001°04'0 0.0
2019-Jun-07 07:58N 49°27' E 001°04'0 0.0
2019-Jun-07 07:28N 49°27' E 001°04'0 0.0
2019-Jun-07 06:58N 49°27' E 001°04'0 0.0
2019-Jun-07 06:25N 49°27' E 001°04'0 0.0
2019-Jun-07 05:55N 49°27' E 001°04'0 0.0
2019-Jun-07 05:28N 49°27' E 001°04'0 0.0
2019-Jun-07 04:58N 49°27' E 001°04'0 0.0
2019-Jun-07 04:25N 49°27' E 001°04'0 0.0
2019-Jun-07 03:58N 49°27' E 001°04'0 0.0
2019-Jun-07 03:28N 49°27' E 001°04'0 0.0
2019-Jun-07 02:55N 49°27' E 001°04'0 0.0
2019-Jun-07 02:28N 49°27' E 001°04'0 0.0
2019-Jun-07 01:55N 49°27' E 001°04'0 0.8
2019-Jun-07 01:30N 49°27' E 001°04'0 0.8
2019-Jun-07 00:58N 49°27' E 001°03'0 0.0
2019-Jun-07 00:28N 49°27' E 001°03'0 0.0
2019-Jun-06 23:58N 49°27' E 001°03'0 0.0
2019-Jun-06 23:28N 49°27' E 001°03'0 0.0
2019-Jun-06 22:58N 49°27' E 001°03'0 0.0
2019-Jun-06 22:28N 49°27' E 001°03'0 0.0
2019-Jun-06 21:58N 49°27' E 001°03'0 0.0
2019-Jun-06 21:28N 49°27' E 001°03'0 0.0
2019-Jun-06 20:58N 49°27' E 001°03'0 0.0
2019-Jun-06 20:28N 49°27' E 001°03'0 0.0
2019-Jun-06 19:58N 49°27' E 001°03'0 0.0
2019-Jun-06 19:25N 49°27' E 001°03'0 0.0
2019-Jun-06 18:55N 49°27' E 001°03'0 0.0
2019-Jun-06 18:28N 49°27' E 001°03'0 0.0
2019-Jun-06 17:58N 49°27' E 001°03'0 0.0
2019-Jun-06 17:28N 49°27' E 001°03'0 0.0
2019-Jun-06 16:58N 49°27' E 001°03'0 0.0
2019-Jun-06 16:31N 49°27' E 001°03'3 5.5
2019-Jun-06 16:00N 49°24' E 001°01'4 7.8
2019-Jun-06 15:30N 49°21' E 000°58'  

Dump ship's entire track history